createdAt,value
2018-12-05T00:00:43.098Z,6.05
2018-12-05T00:03:13.111Z,6.02
2018-12-05T00:05:43.029Z,5.98
2018-12-05T00:08:14.135Z,5.94
2018-12-05T00:32:33.913Z,6.12
2018-12-05T00:39:17.886Z,6.40
2018-12-05T00:41:47.786Z,6.20
2018-12-05T00:44:17.811Z,5.98
2018-12-05T00:46:47.785Z,5.95
2018-12-05T00:49:17.733Z,5.95
2018-12-05T00:51:47.839Z,5.92
2018-12-05T00:54:17.734Z,5.90
2018-12-05T00:56:47.644Z,5.90
2018-12-05T00:59:17.756Z,5.91
2018-12-05T01:01:47.702Z,5.97
2018-12-05T01:04:17.982Z,6.15
2018-12-05T01:06:47.762Z,6.08
2018-12-05T01:09:17.784Z,5.88
2018-12-05T01:11:47.607Z,5.83
2018-12-05T01:14:18.099Z,5.82
2018-12-05T01:16:47.911Z,5.83
2018-12-05T01:19:17.754Z,5.88
2018-12-05T01:21:47.640Z,5.88
2018-12-05T01:24:17.998Z,5.82
2018-12-05T01:26:48.232Z,5.84
2018-12-05T01:29:18.028Z,5.83
2018-12-05T01:31:47.786Z,5.81
2018-12-05T01:34:17.698Z,5.81
2018-12-05T01:36:47.436Z,5.78
2018-12-05T01:39:17.212Z,5.79
2018-12-05T01:41:47.031Z,5.78
2018-12-05T01:44:16.769Z,5.81
2018-12-05T01:46:46.531Z,5.79
2018-12-05T01:49:16.765Z,5.82
2018-12-05T01:51:47.017Z,5.96
2018-12-05T01:54:16.839Z,6.05
2018-12-05T01:56:47.706Z,6.05
2018-12-05T01:59:18.189Z,6.19
2018-12-05T02:01:47.921Z,6.22
2018-12-05T02:04:17.683Z,6.40
2018-12-05T02:06:48.453Z,6.38
2018-12-05T02:09:18.250Z,6.34
2018-12-05T02:11:48.053Z,6.45
2018-12-05T02:14:17.836Z,6.41
2018-12-05T02:16:48.029Z,6.41
2018-12-05T02:19:18.586Z,6.42
2018-12-05T02:21:48.782Z,6.57
2018-12-05T02:24:19.005Z,6.46
2018-12-05T02:26:48.919Z,6.44
2018-12-05T02:29:19.159Z,6.35
2018-12-05T02:31:49.056Z,6.27
2018-12-05T02:34:18.835Z,6.20
2018-12-05T02:36:48.782Z,5.97
2018-12-05T02:39:19.600Z,5.78
2018-12-05T02:41:50.135Z,5.68
2018-12-05T02:44:19.984Z,5.65
2018-12-05T02:46:49.791Z,5.65
2018-12-05T02:49:19.578Z,5.57
2018-12-05T02:51:49.362Z,5.56
2018-12-05T02:54:19.119Z,5.55
2018-12-05T02:56:48.909Z,5.49
2018-12-05T02:59:18.689Z,5.49
2018-12-05T03:01:48.527Z,5.41
2018-12-05T03:04:18.638Z,5.39
2018-12-05T03:06:48.400Z,5.38
2018-12-05T03:09:18.148Z,5.41
2018-12-05T03:11:47.970Z,5.42
2018-12-05T03:14:18.026Z,5.40
2018-12-05T03:16:48.324Z,5.42
2018-12-05T03:19:18.759Z,5.37
2018-12-05T03:21:49.555Z,5.37
2018-12-05T03:24:19.626Z,5.42
2018-12-05T03:26:49.404Z,5.40
2018-12-05T03:29:19.438Z,5.41
2018-12-05T03:31:49.600Z,5.42
2018-12-05T03:34:19.337Z,5.44
2018-12-05T03:36:49.144Z,5.43
2018-12-05T03:39:18.967Z,5.58
2018-12-05T03:41:48.767Z,5.48
2018-12-05T03:44:18.570Z,5.48
2018-12-05T03:46:48.346Z,5.58
2018-12-05T03:49:18.127Z,5.52
2018-12-05T03:51:48.165Z,5.54
2018-12-05T03:54:17.920Z,5.60
2018-12-05T03:56:48.375Z,5.64
2018-12-05T03:59:18.183Z,5.79
2018-12-05T04:01:48.334Z,5.98
2018-12-05T04:04:19.037Z,6.18
2018-12-05T04:06:48.843Z,6.28
2018-12-05T04:09:18.606Z,6.01
2018-12-05T04:11:48.414Z,5.79
2018-12-05T04:14:18.666Z,5.71
2018-12-05T04:16:48.741Z,5.63
2018-12-05T04:19:18.463Z,5.60
2018-12-05T04:21:48.334Z,5.56
2018-12-05T04:24:18.330Z,5.66
2018-12-05T04:26:48.594Z,5.62
2018-12-05T04:29:18.385Z,5.63
2018-12-05T04:31:48.174Z,5.59
2018-12-05T04:34:17.908Z,5.62
2018-12-05T04:36:48.377Z,5.60
2018-12-05T04:39:18.405Z,5.57
2018-12-05T04:41:48.263Z,5.53
2018-12-05T04:44:18.060Z,5.55
2018-12-05T04:46:48.431Z,5.56
2018-12-05T04:49:18.246Z,5.51
2018-12-05T04:51:48.056Z,5.57
2018-12-05T04:54:17.959Z,5.54
2018-12-05T04:56:47.725Z,5.59
2018-12-05T04:59:17.467Z,5.67
2018-12-05T05:01:47.465Z,5.61
2018-12-05T05:04:17.241Z,5.61
2018-12-05T05:06:47.113Z,5.60
2018-12-05T05:09:16.884Z,5.60
2018-12-05T05:11:46.637Z,5.61
2018-12-05T05:14:16.365Z,5.58
2018-12-05T05:16:46.177Z,5.60
2018-12-05T05:19:15.928Z,5.63
2018-12-05T05:21:46.054Z,5.62
2018-12-05T05:24:15.843Z,5.51
2018-12-05T05:26:45.865Z,5.58
2018-12-05T05:29:15.896Z,5.58
2018-12-05T05:31:45.723Z,5.57
2018-12-05T05:34:15.499Z,5.60
2018-12-05T05:36:45.229Z,5.52
2018-12-05T05:39:15.035Z,5.52
2018-12-05T05:41:45.037Z,5.57
2018-12-05T05:44:15.125Z,5.64
2018-12-05T05:46:44.893Z,5.72
2018-12-05T05:49:14.704Z,5.82
2018-12-05T05:51:44.497Z,6.11
2018-12-05T05:54:14.261Z,6.13
2018-12-05T05:56:45.425Z,6.30
2018-12-05T05:59:15.489Z,6.36
2018-12-05T06:01:45.256Z,6.35
2018-12-05T06:04:15.028Z,6.26
2018-12-05T06:06:45.712Z,6.15
2018-12-05T06:09:15.482Z,6.25
2018-12-05T06:11:45.312Z,6.32
2018-12-05T06:14:15.099Z,6.33
2018-12-05T06:16:45.128Z,6.41
2018-12-05T06:19:15.304Z,6.12
2018-12-05T06:21:45.125Z,6.13
2018-12-05T06:24:15.292Z,6.16
2018-12-05T06:26:45.124Z,6.14
2018-12-05T06:29:14.899Z,6.27
2018-12-05T06:31:44.652Z,6.33
2018-12-05T06:34:14.496Z,6.50
2018-12-05T06:36:44.276Z,6.59
2018-12-05T06:39:14.762Z,6.58
2018-12-05T06:41:44.914Z,6.34
2018-12-05T06:44:14.699Z,6.52
2018-12-05T06:46:44.516Z,6.58
2018-12-05T06:49:14.927Z,6.58
2018-12-05T06:51:44.683Z,6.59
2018-12-05T06:54:14.510Z,6.47
2018-12-05T06:56:44.294Z,6.59
2018-12-05T06:59:14.121Z,6.58
2018-12-05T07:01:43.892Z,6.61
2018-12-05T07:04:13.698Z,6.46
2018-12-05T07:06:43.969Z,6.51
2018-12-05T07:09:13.772Z,6.63
2018-12-05T07:11:43.576Z,6.74
2018-12-05T07:14:13.346Z,6.68
2018-12-05T07:16:43.136Z,6.53
2018-12-05T07:19:12.866Z,6.57
2018-12-05T07:21:42.818Z,6.44
2018-12-05T07:24:12.606Z,6.43
2018-12-05T07:26:42.436Z,6.09
2018-12-05T07:29:12.244Z,6.07
2018-12-05T07:31:42.058Z,6.12
2018-12-05T07:34:12.150Z,6.21
2018-12-05T07:39:22.316Z,6.45
2018-12-05T07:41:52.086Z,6.35
2018-12-05T07:44:21.921Z,6.33
2018-12-05T07:46:51.725Z,6.48
2018-12-05T07:49:21.482Z,6.56
2018-12-05T07:51:51.268Z,6.63
2018-12-05T07:54:21.088Z,6.64
2018-12-05T07:56:50.832Z,6.56
2018-12-05T07:59:20.602Z,6.63
2018-12-05T08:01:50.404Z,6.52
2018-12-05T08:04:20.396Z,6.26
2018-12-05T08:06:50.196Z,6.11
2018-12-05T08:09:20.029Z,6.10
2018-12-05T08:11:49.845Z,6.08
2018-12-05T08:14:19.865Z,5.91
2018-12-05T08:16:49.692Z,5.91
2018-12-05T08:19:20.480Z,5.88
2018-12-05T08:21:50.300Z,5.96
2018-12-05T08:24:20.046Z,5.95
2018-12-05T08:26:49.869Z,5.98
2018-12-05T08:29:19.938Z,5.94
2018-12-05T08:31:50.054Z,5.88
2018-12-05T08:34:20.094Z,5.80
2018-12-05T08:36:49.886Z,5.78
2018-12-05T08:40:49.335Z,5.77
2018-12-05T08:43:19.125Z,5.85
2018-12-05T08:45:49.197Z,5.89
2018-12-05T08:48:18.999Z,5.99
2018-12-05T08:50:48.788Z,5.90
2018-12-05T08:53:18.577Z,5.91
2018-12-05T08:55:48.403Z,5.84
2018-12-05T08:58:18.823Z,5.94
2018-12-05T09:00:48.553Z,6.10
2018-12-05T09:03:18.281Z,6.14
2018-12-05T09:05:48.033Z,6.20
2018-12-05T09:08:17.827Z,6.21
2018-12-05T09:10:47.590Z,6.09
2018-12-05T09:13:17.351Z,6.20
2018-12-05T09:15:47.154Z,6.18
2018-12-05T09:18:16.904Z,6.31
2018-12-05T09:20:46.788Z,6.30
2018-12-05T09:23:16.572Z,6.23
2018-12-05T09:25:46.340Z,6.36
2018-12-05T09:28:16.100Z,6.46
2018-12-05T09:30:45.862Z,6.72
2018-12-05T09:33:15.610Z,6.82
2018-12-05T09:35:45.638Z,6.98
2018-12-05T09:38:15.704Z,6.82
2018-12-05T09:40:45.513Z,7.00
2018-12-05T09:43:15.258Z,6.82
2018-12-05T09:45:45.032Z,6.58
2018-12-05T09:48:14.827Z,6.62
2018-12-05T09:50:44.838Z,6.57
2018-12-05T09:53:14.628Z,6.56
2018-12-05T09:55:44.398Z,6.50
2018-12-05T09:58:14.215Z,6.45
2018-12-05T10:00:44.000Z,6.43
2018-12-05T10:03:13.836Z,6.58
2018-12-05T10:05:43.906Z,6.43
2018-12-05T10:08:13.974Z,6.38
2018-12-05T10:10:44.133Z,6.43
2018-12-05T10:13:13.977Z,6.38
2018-12-05T10:15:44.034Z,6.46
2018-12-05T10:18:13.848Z,6.69
2018-12-05T10:20:43.628Z,6.71
2018-12-05T10:23:13.470Z,6.77
2018-12-05T10:25:43.460Z,6.75
2018-12-05T10:28:13.256Z,6.83
2018-12-05T10:30:43.038Z,7.03
2018-12-05T10:33:12.784Z,6.85
2018-12-05T10:35:42.624Z,6.85
2018-12-05T10:38:12.676Z,6.73
2018-12-05T10:40:42.480Z,6.63
2018-12-05T10:43:12.530Z,6.75
2018-12-05T10:45:42.444Z,6.67
2018-12-05T10:48:12.174Z,6.72
2018-12-05T10:50:41.964Z,6.82
2018-12-05T10:53:12.286Z,6.91
2018-12-05T10:55:42.299Z,6.73
2018-12-05T10:58:12.449Z,6.62
2018-12-05T11:00:47.827Z,6.75
2018-12-05T11:03:23.999Z,6.90
2018-12-05T11:05:59.126Z,6.95
2018-12-05T11:08:34.454Z,6.98
2018-12-05T11:11:10.036Z,6.93
2018-12-05T11:13:44.924Z,7.07
2018-12-05T11:16:20.267Z,7.22
2018-12-05T11:18:55.028Z,7.18
2018-12-05T11:21:30.416Z,7.35
2018-12-05T11:24:12.113Z,7.29
2018-12-05T11:26:41.907Z,7.43
2018-12-05T11:29:12.221Z,7.52
2018-12-05T11:31:42.355Z,7.30
2018-12-05T11:34:12.641Z,7.29
2018-12-05T11:36:42.427Z,7.30
2018-12-05T11:39:12.450Z,7.25
2018-12-05T11:41:42.192Z,7.29
2018-12-05T11:44:11.934Z,7.25
2018-12-05T11:46:41.742Z,7.29
2018-12-05T11:49:11.801Z,7.31
2018-12-05T11:51:41.564Z,7.15
2018-12-05T11:54:11.364Z,7.17
2018-12-05T11:56:41.426Z,7.28
2018-12-05T11:59:11.168Z,7.36
2018-12-05T12:01:40.964Z,7.21
2018-12-05T12:04:10.800Z,7.28
2018-12-05T12:06:40.530Z,7.24
2018-12-05T12:09:11.850Z,7.23
2018-12-05T12:11:42.086Z,7.30
2018-12-05T12:14:11.856Z,7.22
2018-12-05T12:16:41.637Z,7.20
2018-12-05T12:19:11.775Z,7.24
2018-12-05T12:21:43.532Z,7.08
2018-12-05T12:24:13.376Z,7.08
2018-12-05T12:26:43.174Z,7.13
2018-12-05T12:29:12.992Z,7.18
2018-12-05T12:31:42.736Z,7.08
2018-12-05T12:34:13.350Z,7.12
2018-12-05T12:36:43.484Z,7.16
2018-12-05T12:39:13.246Z,7.25
2018-12-05T12:41:43.039Z,7.20
2018-12-05T12:44:12.834Z,7.24
2018-12-05T12:46:42.664Z,7.36
2018-12-05T12:49:12.841Z,7.33
2018-12-05T12:51:42.626Z,7.37
2018-12-05T12:54:12.692Z,7.40
2018-12-05T12:56:42.474Z,7.34
2018-12-05T12:59:12.844Z,7.33
2018-12-05T13:01:42.726Z,7.37
2018-12-05T13:04:12.913Z,7.37
2018-12-05T13:06:42.973Z,7.44
2018-12-05T13:09:13.501Z,7.44
2018-12-05T13:11:43.300Z,7.45
2018-12-05T13:14:13.055Z,7.41
2018-12-05T13:16:42.847Z,7.33
2018-12-05T13:19:13.811Z,7.32
2018-12-05T13:21:44.336Z,7.43
2018-12-05T13:24:14.287Z,7.38
2018-12-05T13:26:44.407Z,7.50
2018-12-05T13:29:14.186Z,7.54
2018-12-05T13:31:44.211Z,7.42
2018-12-05T13:34:14.244Z,7.38
2018-12-05T13:36:44.017Z,7.49
2018-12-05T13:39:13.781Z,7.47
2018-12-05T13:41:43.548Z,7.38
2018-12-05T13:44:13.646Z,7.52
2018-12-05T13:46:43.447Z,7.45
2018-12-05T13:49:13.192Z,7.63
2018-12-05T13:51:43.819Z,7.69
2018-12-05T13:54:13.926Z,7.62
2018-12-05T13:56:44.652Z,7.60
2018-12-05T13:59:14.457Z,7.42
2018-12-05T14:01:44.298Z,7.24
2018-12-05T14:04:14.105Z,7.23
2018-12-05T14:06:43.860Z,7.37
2018-12-05T14:09:14.186Z,7.42
2018-12-05T14:11:44.199Z,7.37
2018-12-05T14:14:13.996Z,7.55
2018-12-05T14:16:44.214Z,7.63
2018-12-05T14:19:14.001Z,7.45
2018-12-05T14:21:43.765Z,7.48
2018-12-05T14:24:13.654Z,7.44
2018-12-05T14:26:43.485Z,7.37
2018-12-05T14:29:13.252Z,7.29
2018-12-05T14:31:43.056Z,7.36
2018-12-05T14:34:12.796Z,7.44
2018-12-05T14:36:42.572Z,7.45
2018-12-05T14:39:12.362Z,7.50
2018-12-05T14:41:42.228Z,7.43
2018-12-05T14:44:12.473Z,7.42
2018-12-05T14:46:43.180Z,7.41
2018-12-05T14:49:13.046Z,7.43
2018-12-05T14:51:43.089Z,7.41
2018-12-05T14:54:12.923Z,7.46
2018-12-05T14:56:43.517Z,7.46
2018-12-05T14:59:14.299Z,7.40
2018-12-05T15:01:44.244Z,7.40
2018-12-05T15:04:14.089Z,7.28
2018-12-05T15:06:44.195Z,7.29
2018-12-05T15:09:14.297Z,7.34
2018-12-05T15:11:44.429Z,7.40
2018-12-05T15:14:14.202Z,7.42
2018-12-05T15:16:44.527Z,7.52
2018-12-05T15:19:14.913Z,7.64
2018-12-05T15:21:44.711Z,7.75
2018-12-05T15:24:14.625Z,7.63
2018-12-05T15:26:44.511Z,7.71
2018-12-05T15:29:14.357Z,7.55
2018-12-05T15:31:44.271Z,7.47
2018-12-05T15:34:14.410Z,7.40
2018-12-05T15:36:44.220Z,7.47
2018-12-05T15:39:14.682Z,7.35
2018-12-05T15:41:44.440Z,7.29
2018-12-05T15:44:14.342Z,7.19
2018-12-05T15:46:44.189Z,7.24
2018-12-05T15:49:13.963Z,7.15
2018-12-05T15:51:43.871Z,7.04
2018-12-05T15:54:13.693Z,6.98
2018-12-05T15:56:44.274Z,7.00
2018-12-05T15:59:14.229Z,7.08
2018-12-05T16:01:45.165Z,7.07
2018-12-05T16:04:14.946Z,7.03
2018-12-05T16:06:44.739Z,7.02
2018-12-05T16:09:15.181Z,7.03
2018-12-05T16:11:45.438Z,7.08
2018-12-05T16:14:16.000Z,7.07
2018-12-05T16:16:45.916Z,7.05
2018-12-05T16:19:16.067Z,7.03
2018-12-05T16:21:46.702Z,7.08
2018-12-05T16:24:16.595Z,6.97
2018-12-05T16:26:46.727Z,6.96
2018-12-05T16:29:16.653Z,6.94
2018-12-05T16:31:46.432Z,6.97
2018-12-05T16:34:16.359Z,6.97
2018-12-05T16:36:46.145Z,6.95
2018-12-05T16:39:15.985Z,7.03
2018-12-05T16:41:45.846Z,7.00
2018-12-05T16:44:15.654Z,6.98
2018-12-05T16:46:45.462Z,7.01
2018-12-05T16:49:15.297Z,6.97
2018-12-05T16:51:45.930Z,7.07
2018-12-05T16:54:17.241Z,7.02
2018-12-05T16:56:47.326Z,7.11
2018-12-05T16:59:18.195Z,7.11
2018-12-05T17:01:48.108Z,7.15
2018-12-05T17:04:17.934Z,7.12
2018-12-05T17:06:48.834Z,7.08
2018-12-05T17:09:25.844Z,7.10
2018-12-05T17:11:50.931Z,7.21
2018-12-05T17:14:21.501Z,7.16
2018-12-05T17:16:51.321Z,7.15
2018-12-05T17:19:21.701Z,7.18
2018-12-05T17:21:51.618Z,7.21
2018-12-05T17:24:21.493Z,7.27
2018-12-05T17:26:51.520Z,7.29
2018-12-05T17:29:21.385Z,7.28
2018-12-05T17:31:51.120Z,7.29
2018-12-05T17:34:20.934Z,7.48
2018-12-05T17:36:50.703Z,7.52
2018-12-05T17:39:20.509Z,7.54
2018-12-05T17:41:50.306Z,7.61
2018-12-05T17:44:20.070Z,7.62
2018-12-05T17:46:49.873Z,7.62
2018-12-05T17:49:19.634Z,7.73
2018-12-05T17:51:49.420Z,7.86
2018-12-05T17:54:19.163Z,7.82
2018-12-05T17:56:49.007Z,7.81
2018-12-05T17:59:18.769Z,7.85
2018-12-05T18:01:48.855Z,7.90
2018-12-05T18:04:18.713Z,8.02
2018-12-05T18:06:48.717Z,7.88
2018-12-05T18:09:18.773Z,7.85
2018-12-05T18:11:48.826Z,7.74
2018-12-05T18:14:18.583Z,7.86
2018-12-05T18:16:48.459Z,7.81
2018-12-05T18:19:20.627Z,7.91
2018-12-05T18:21:50.688Z,7.82
2018-12-05T18:24:20.995Z,7.74
2018-12-05T18:26:51.531Z,7.79
2018-12-05T18:29:21.264Z,7.86
2018-12-05T18:31:51.000Z,7.88
2018-12-05T18:34:21.088Z,7.97
2018-12-05T18:36:50.842Z,7.75
2018-12-05T18:39:20.633Z,7.96
2018-12-05T18:41:50.458Z,7.94
2018-12-05T18:44:23.087Z,7.88
2018-12-05T18:46:52.857Z,7.85
2018-12-05T18:49:23.074Z,7.88
2018-12-05T18:51:52.836Z,7.91
2018-12-05T18:54:22.584Z,7.99
2018-12-05T18:56:52.877Z,7.94
2018-12-05T18:59:22.646Z,7.92
2018-12-05T19:01:53.654Z,7.91
2018-12-05T19:04:23.511Z,8.01
2018-12-05T19:06:53.860Z,8.01
2018-12-05T19:09:27.041Z,7.88
2018-12-05T19:11:55.775Z,7.83
2018-12-05T19:14:30.682Z,7.78
2018-12-05T19:17:00.551Z,7.78
2018-12-05T19:19:30.349Z,7.71
2018-12-05T19:22:00.236Z,7.69
2018-12-05T19:24:30.089Z,7.81
2018-12-05T19:27:00.002Z,7.71
2018-12-05T19:29:29.794Z,7.77
2018-12-05T19:31:59.589Z,7.73
2018-12-05T19:34:29.403Z,7.62
2018-12-05T19:36:59.433Z,7.83
2018-12-05T19:39:29.558Z,7.76
2018-12-05T19:41:59.449Z,7.92
2018-12-05T19:44:29.575Z,7.85
2018-12-05T19:46:59.767Z,7.84
2018-12-05T19:49:29.909Z,7.82
2018-12-05T19:52:00.544Z,7.91
2018-12-05T19:54:30.742Z,7.85
2018-12-05T19:57:00.498Z,7.79
2018-12-05T19:59:30.620Z,7.99
2018-12-05T20:02:00.431Z,7.79
2018-12-05T20:04:30.573Z,7.86
2018-12-05T20:07:00.408Z,8.03
2018-12-05T20:09:30.432Z,7.85
2018-12-05T20:12:00.521Z,7.78
2018-12-05T20:14:30.797Z,7.88
2018-12-05T20:17:00.593Z,7.91
2018-12-05T20:19:31.314Z,7.88
2018-12-05T20:22:01.161Z,7.91
2018-12-05T20:24:31.386Z,7.70
2018-12-05T20:27:01.161Z,7.65
2018-12-05T20:29:31.207Z,7.62
2018-12-05T20:32:01.427Z,7.74
2018-12-05T20:34:31.285Z,7.55
2018-12-05T20:37:01.326Z,7.82
2018-12-05T20:39:31.630Z,7.69
2018-12-05T20:42:04.068Z,7.87
2018-12-05T20:44:33.941Z,7.74
2018-12-05T20:47:04.086Z,7.84
2018-12-05T20:49:34.171Z,7.96
2018-12-05T20:52:04.357Z,7.83
2018-12-05T20:54:34.159Z,7.71
2018-12-05T20:57:04.241Z,7.72
2018-12-05T20:59:34.056Z,7.74
2018-12-05T21:02:04.530Z,7.68
2018-12-05T21:04:34.337Z,7.43
2018-12-05T21:07:04.436Z,7.33
2018-12-05T21:09:34.284Z,7.38
2018-12-05T21:12:04.845Z,7.57
2018-12-05T21:14:34.652Z,7.57
2018-12-05T21:17:04.744Z,7.51
2018-12-05T21:19:34.576Z,7.19
2018-12-05T21:22:04.368Z,7.23
2018-12-05T21:24:34.264Z,7.33
2018-12-05T21:27:04.386Z,7.06
2018-12-05T21:29:34.432Z,6.99
2018-12-05T21:32:05.043Z,6.96
2018-12-05T21:34:35.164Z,6.81
2018-12-05T21:37:05.113Z,6.75
2018-12-05T21:39:34.988Z,6.65
2018-12-05T21:42:05.677Z,6.65
2018-12-05T21:44:35.726Z,6.78
2018-12-05T21:47:05.581Z,6.88
2018-12-05T21:49:35.612Z,7.05
2018-12-05T21:52:05.922Z,7.17
2018-12-05T21:54:35.678Z,6.98
2018-12-05T21:57:05.995Z,6.85
2018-12-05T21:59:36.290Z,6.88
2018-12-05T22:02:06.569Z,6.85
2018-12-05T22:04:36.344Z,6.70
2018-12-05T22:07:06.109Z,6.69
2018-12-05T22:09:35.932Z,6.83
2018-12-05T22:12:05.756Z,6.92
2018-12-05T22:14:35.583Z,7.06
2018-12-05T22:17:05.450Z,7.16
2018-12-05T22:19:35.314Z,7.17
2018-12-05T22:22:05.130Z,7.15
2018-12-05T22:24:35.416Z,7.03
2018-12-05T22:27:05.301Z,7.00
2018-12-05T22:29:35.405Z,7.12
2018-12-05T22:32:05.593Z,7.20
2018-12-05T22:34:35.792Z,7.00
2018-12-05T22:37:05.651Z,7.16
2018-12-05T22:39:35.550Z,7.27
2018-12-05T22:43:34.768Z,7.32
2018-12-05T22:46:04.653Z,7.27
2018-12-05T22:48:35.271Z,7.32
2018-12-05T22:51:06.265Z,7.35
2018-12-05T22:53:36.907Z,7.37
2018-12-05T22:56:06.921Z,7.34
2018-12-05T22:58:36.740Z,7.44
2018-12-05T23:01:07.400Z,7.27
2018-12-05T23:03:37.495Z,7.00
2018-12-05T23:06:07.256Z,6.92
2018-12-05T23:08:37.035Z,7.10
2018-12-05T23:11:06.996Z,7.15
2018-12-05T23:13:37.561Z,7.17
2018-12-05T23:16:08.054Z,7.27
2018-12-05T23:18:37.980Z,7.36
2018-12-05T23:21:07.773Z,7.41
2018-12-05T23:23:37.595Z,7.46
2018-12-05T23:26:07.414Z,7.53
2018-12-05T23:28:37.178Z,7.50
2018-12-05T23:31:07.105Z,7.56
2018-12-05T23:33:37.015Z,7.59
2018-12-05T23:36:07.232Z,7.60
2018-12-05T23:38:37.009Z,7.51
2018-12-05T23:41:06.752Z,7.65
2018-12-05T23:43:36.515Z,7.60
2018-12-05T23:46:06.412Z,7.54
2018-12-05T23:48:36.201Z,7.42
2018-12-05T23:51:05.957Z,7.17
2018-12-05T23:53:35.786Z,7.07
2018-12-05T23:56:06.434Z,7.19
2018-12-05T23:58:36.340Z,7.07
